createdAt,value
2019-05-03T00:02:14.041Z,5.40
2019-05-03T00:05:41.767Z,5.30
2019-05-03T00:09:09.615Z,5.20
2019-05-03T00:12:33.423Z,5.20
2019-05-03T00:16:07.668Z,5.10
2019-05-03T00:19:32.791Z,5.10
2019-05-03T00:22:56.775Z,5.10
2019-05-03T00:26:22.483Z,5.10
2019-05-03T00:29:46.178Z,5.10
2019-05-03T00:33:11.771Z,5.10
2019-05-03T00:36:41.925Z,5.00
2019-05-03T00:40:09.145Z,5.00
2019-05-03T00:43:33.319Z,4.90
2019-05-03T00:46:57.063Z,4.80
2019-05-03T00:50:22.551Z,4.60
2019-05-03T00:53:46.602Z,4.70
2019-05-03T00:57:12.063Z,4.60
2019-05-03T01:00:36.988Z,4.70
2019-05-03T01:04:01.838Z,4.60
2019-05-03T01:07:25.812Z,4.70
2019-05-03T01:10:51.508Z,4.60
2019-05-03T01:14:15.790Z,4.60
2019-05-03T01:17:39.595Z,4.60
2019-05-03T01:21:03.490Z,4.50
2019-05-03T01:24:27.328Z,4.50
2019-05-03T01:27:52.202Z,4.30
2019-05-03T01:31:16.630Z,4.30
2019-05-03T01:34:41.613Z,4.50
2019-05-03T01:38:05.596Z,4.60
2019-05-03T01:41:29.390Z,4.70
2019-05-03T01:44:54.230Z,4.90
2019-05-03T01:48:22.678Z,5.00
2019-05-03T01:52:04.828Z,5.10
2019-05-03T01:55:46.827Z,5.10
2019-05-03T01:59:12.310Z,4.90
2019-05-03T02:02:47.150Z,4.70
2019-05-03T02:06:11.923Z,4.60
2019-05-03T02:09:35.736Z,4.60
2019-05-03T02:13:01.385Z,4.70
2019-05-03T02:16:25.024Z,4.80
2019-05-03T02:19:48.909Z,4.90
2019-05-03T02:23:12.991Z,5.10
2019-05-03T02:26:36.765Z,5.20
2019-05-03T02:30:03.022Z,5.30
2019-05-03T02:33:26.110Z,5.40
2019-05-03T02:36:50.051Z,5.50
2019-05-03T02:40:14.249Z,5.50
2019-05-03T02:43:40.567Z,5.70
2019-05-03T02:47:22.528Z,5.90
2019-05-03T02:50:46.513Z,6.00
2019-05-03T02:54:10.451Z,6.10
2019-05-03T02:57:35.170Z,6.40
2019-05-03T03:01:01.368Z,6.40
2019-05-03T03:04:26.484Z,6.40
2019-05-03T03:07:52.457Z,6.40
2019-05-03T03:11:17.991Z,6.40
2019-05-03T03:14:42.138Z,6.30
2019-05-03T03:18:08.870Z,6.00
2019-05-03T03:21:36.507Z,5.90
2019-05-03T03:25:01.653Z,5.90
2019-05-03T03:28:27.998Z,6.00
2019-05-03T03:32:11.098Z,6.20
2019-05-03T03:35:38.347Z,6.30
2019-05-03T03:39:02.407Z,6.40
2019-05-03T03:42:26.662Z,6.40
2019-05-03T03:45:51.452Z,6.50
2019-05-03T03:49:19.015Z,6.60
2019-05-03T03:52:45.057Z,6.70
2019-05-03T03:56:10.710Z,6.90
2019-05-03T03:59:36.362Z,6.90
2019-05-03T04:03:00.511Z,6.80
2019-05-03T04:06:26.893Z,6.90
2019-05-03T04:09:51.356Z,7.00
2019-05-03T04:13:16.210Z,7.20
2019-05-03T04:16:41.648Z,7.40
2019-05-03T04:20:07.679Z,7.70
2019-05-03T04:23:32.265Z,7.90
2019-05-03T04:27:15.543Z,8.20
2019-05-03T04:30:30.689Z,8.40
2019-05-03T04:33:56.304Z,8.50
2019-05-03T04:37:20.353Z,8.70
2019-05-03T04:40:45.386Z,8.90
2019-05-03T04:44:09.411Z,9.20
2019-05-03T04:47:35.590Z,9.50
2019-05-03T04:50:58.838Z,9.90
2019-05-03T04:54:25.306Z,10.20
2019-05-03T04:57:50.551Z,10.30
2019-05-03T05:01:15.777Z,10.70
2019-05-03T05:04:39.861Z,11.30
2019-05-03T05:08:05.925Z,11.60
2019-05-03T05:11:29.196Z,11.80
2019-05-03T05:14:53.066Z,11.80
2019-05-03T05:18:27.555Z,11.60
2019-05-03T05:21:55.987Z,11.50
2019-05-03T05:25:25.122Z,11.50
2019-05-03T05:28:54.885Z,11.70
2019-05-03T05:32:18.854Z,12.00
2019-05-03T05:35:44.310Z,12.10
2019-05-03T05:39:09.445Z,12.10
2019-05-03T05:42:34.555Z,12.10
2019-05-03T05:45:59.054Z,12.30
2019-05-03T05:49:25.965Z,12.30
2019-05-03T05:52:50.970Z,12.40
2019-05-03T05:56:24.844Z,12.70
2019-05-03T05:59:54.429Z,13.20
2019-05-03T06:03:17.938Z,13.70
2019-05-03T06:06:45.122Z,13.90
2019-05-03T06:10:14.170Z,13.50
2019-05-03T06:13:55.607Z,13.50
2019-05-03T06:17:24.519Z,13.60
2019-05-03T06:21:08.138Z,13.70
2019-05-03T06:24:34.920Z,13.90
2019-05-03T06:27:59.927Z,13.80
2019-05-03T06:31:25.748Z,14.10
2019-05-03T06:34:49.960Z,13.80
2019-05-03T06:38:15.247Z,13.10
2019-05-03T06:41:39.323Z,13.60
2019-05-03T06:45:09.621Z,14.30
2019-05-03T06:48:31.962Z,13.80
2019-05-03T06:51:55.709Z,14.40
2019-05-03T06:55:19.575Z,15.10
2019-05-03T06:58:44.867Z,15.50
2019-05-03T07:02:28.567Z,16.30
2019-05-03T07:06:10.855Z,16.20
2019-05-03T07:09:39.698Z,15.60
2019-05-03T07:13:05.116Z,15.50
2019-05-03T07:16:29.511Z,16.00
2019-05-03T07:19:54.682Z,16.30
2019-05-03T07:23:18.724Z,15.90
2019-05-03T07:26:46.209Z,15.00
2019-05-03T07:30:10.284Z,15.20
2019-05-03T07:33:35.889Z,16.00
2019-05-03T07:36:59.670Z,16.90
2019-05-03T07:40:25.368Z,16.30
2019-05-03T07:43:50.203Z,16.50
2019-05-03T07:47:14.867Z,19.10
2019-05-03T07:50:38.878Z,18.70
2019-05-03T07:54:04.674Z,20.60
2019-05-03T07:57:29.553Z,23.90
2019-05-03T08:01:05.793Z,25.10
2019-05-03T08:04:21.166Z,23.80
2019-05-03T08:07:46.277Z,22.70
2019-05-03T08:11:10.112Z,21.50
2019-05-03T08:14:35.731Z,19.70
2019-05-03T08:17:59.391Z,17.80
2019-05-03T08:21:25.035Z,17.00
2019-05-03T08:24:48.685Z,16.10
2019-05-03T08:28:14.407Z,15.30
2019-05-03T08:31:42.372Z,14.80
2019-05-03T08:35:17.299Z,14.70
2019-05-03T08:38:41.152Z,14.60
2019-05-03T08:42:10.708Z,14.60
2019-05-03T08:45:34.828Z,14.30
2019-05-03T08:48:58.749Z,14.30
2019-05-03T08:52:24.805Z,14.40
2019-05-03T08:55:48.423Z,14.40
2019-05-03T08:59:12.272Z,14.50
2019-05-03T09:02:36.264Z,14.00
2019-05-03T09:06:00.145Z,13.90
2019-05-03T09:09:25.835Z,13.70
2019-05-03T09:13:06.862Z,13.70
2019-05-03T09:16:35.449Z,13.90
2019-05-03T09:19:59.494Z,14.50
2019-05-03T09:23:25.922Z,14.70
2019-05-03T09:26:49.103Z,15.00
2019-05-03T09:30:14.505Z,15.40
2019-05-03T09:33:39.025Z,16.40
2019-05-03T09:37:04.769Z,16.80
2019-05-03T09:40:28.874Z,17.00
2019-05-03T09:43:52.852Z,17.30
2019-05-03T09:47:16.777Z,16.90
2019-05-03T09:50:40.693Z,18.00
2019-05-03T09:54:15.655Z,18.60
2019-05-03T09:57:39.599Z,18.00
2019-05-03T10:01:06.105Z,16.70
2019-05-03T10:04:30.323Z,15.50
2019-05-03T10:07:54.546Z,14.20
2019-05-03T10:11:18.402Z,13.80
2019-05-03T10:14:42.297Z,13.90
2019-05-03T10:18:10.781Z,13.60
2019-05-03T10:21:35.564Z,13.70
2019-05-03T10:24:59.462Z,13.90
2019-05-03T10:28:24.978Z,13.50
2019-05-03T10:31:54.572Z,13.30
2019-05-03T10:35:19.181Z,13.10
2019-05-03T10:38:45.646Z,13.00
2019-05-03T10:42:08.916Z,13.00
2019-05-03T10:45:32.898Z,13.00
2019-05-03T10:48:57.255Z,13.00
2019-05-03T10:52:22.683Z,12.60
2019-05-03T10:56:05.090Z,12.50
2019-05-03T10:59:29.189Z,12.30
2019-05-03T11:02:57.024Z,12.20
2019-05-03T11:06:21.040Z,12.10
2019-05-03T11:09:49.627Z,12.10
2019-05-03T11:13:10.474Z,11.60
2019-05-03T11:16:35.174Z,11.40
2019-05-03T11:20:00.050Z,11.50
2019-05-03T11:23:25.181Z,11.40
2019-05-03T11:26:51.032Z,11.30
2019-05-03T11:30:17.263Z,11.30
2019-05-03T11:33:42.538Z,11.30
2019-05-03T11:37:09.577Z,11.40
2019-05-03T11:40:34.589Z,11.60
2019-05-03T11:44:00.209Z,11.60
2019-05-03T11:47:27.157Z,11.80
2019-05-03T11:50:51.093Z,11.80
2019-05-03T11:54:15.740Z,11.40
2019-05-03T11:57:40.586Z,11.50
2019-05-03T12:01:12.990Z,11.30
2019-05-03T12:04:31.470Z,11.10
2019-05-03T12:07:55.513Z,11.10
2019-05-03T12:11:19.358Z,11.10
2019-05-03T12:14:45.226Z,11.30
2019-05-03T12:18:10.674Z,11.30
2019-05-03T12:21:37.666Z,11.20
2019-05-03T12:25:00.825Z,11.00
2019-05-03T12:28:26.171Z,10.90
2019-05-03T12:31:50.004Z,10.80
2019-05-03T12:35:15.353Z,10.60
2019-05-03T12:38:39.309Z,10.80
2019-05-03T12:42:05.868Z,10.80
2019-05-03T12:45:29.535Z,10.90
2019-05-03T12:48:53.505Z,11.00
2019-05-03T12:52:18.456Z,11.10
2019-05-03T12:55:42.742Z,11.10
2019-05-03T12:59:08.175Z,11.30
2019-05-03T13:02:37.175Z,11.50
2019-05-03T13:06:01.041Z,11.70
2019-05-03T13:09:28.398Z,11.70
2019-05-03T13:12:53.281Z,11.40
2019-05-03T13:16:19.128Z,11.10
2019-05-03T13:19:45.041Z,11.30
2019-05-03T13:23:08.638Z,11.60
2019-05-03T13:26:34.478Z,11.90
2019-05-03T13:29:58.281Z,12.40
2019-05-03T13:33:22.155Z,12.60
2019-05-03T13:36:46.093Z,12.80
2019-05-03T13:40:10.052Z,12.70
2019-05-03T13:43:34.809Z,12.90
2019-05-03T13:46:58.778Z,13.00
2019-05-03T13:50:24.442Z,12.90
2019-05-03T13:53:49.272Z,13.40
2019-05-03T13:57:15.258Z,13.70
2019-05-03T14:00:38.770Z,13.30
2019-05-03T14:04:02.785Z,13.10
2019-05-03T14:07:26.631Z,13.20
2019-05-03T14:10:50.853Z,13.00
2019-05-03T14:14:15.220Z,12.70
2019-05-03T14:17:39.214Z,12.50
2019-05-03T14:21:17.161Z,12.50
2019-05-03T14:24:41.032Z,12.40
2019-05-03T14:28:05.469Z,12.30
2019-05-03T14:31:29.808Z,12.10
2019-05-03T14:34:54.770Z,11.70
2019-05-03T14:38:18.888Z,11.60
2019-05-03T14:41:46.518Z,11.60
2019-05-03T14:45:08.506Z,11.60
2019-05-03T14:48:35.017Z,11.50
2019-05-03T14:51:58.837Z,11.40
2019-05-03T14:55:30.745Z,11.10
2019-05-03T14:59:05.288Z,11.00
2019-05-03T15:02:43.613Z,10.90
2019-05-03T15:06:05.195Z,10.90
2019-05-03T15:09:29.672Z,11.00
2019-05-03T15:12:55.672Z,11.10
2019-05-03T15:16:19.531Z,11.10
2019-05-03T15:19:45.206Z,10.90
2019-05-03T15:23:09.081Z,10.90
2019-05-03T15:26:32.915Z,10.90
2019-05-03T15:29:56.846Z,10.70
2019-05-03T15:33:20.752Z,10.90
2019-05-03T15:36:45.289Z,11.00
2019-05-03T15:40:09.641Z,11.10
2019-05-03T15:43:37.929Z,11.30
2019-05-03T15:47:09.110Z,11.20
2019-05-03T15:50:29.661Z,11.30
2019-05-03T15:53:55.123Z,11.30
2019-05-03T15:57:19.268Z,11.50
2019-05-03T16:00:44.595Z,11.60
2019-05-03T16:04:08.571Z,11.50
2019-05-03T16:07:32.361Z,11.60
2019-05-03T16:10:56.149Z,11.70
2019-05-03T16:14:20.096Z,11.80
2019-05-03T16:17:44.950Z,11.80
2019-05-03T16:21:09.825Z,11.80
2019-05-03T16:24:35.397Z,11.40
2019-05-03T16:28:01.032Z,11.20
2019-05-03T16:31:26.642Z,11.10
2019-05-03T16:34:51.122Z,11.00
2019-05-03T16:38:15.761Z,10.90
2019-05-03T16:41:40.460Z,11.00
2019-05-03T16:45:05.584Z,11.00
2019-05-03T16:48:29.991Z,11.10
2019-05-03T16:51:54.895Z,11.10
2019-05-03T16:55:18.968Z,11.10
2019-05-03T16:58:44.707Z,11.00
2019-05-03T17:02:09.372Z,10.80
2019-05-03T17:05:46.987Z,10.70
2019-05-03T17:09:15.601Z,10.60
2019-05-03T17:12:39.988Z,10.50
2019-05-03T17:16:04.756Z,10.30
2019-05-03T17:19:31.384Z,10.20
2019-05-03T17:22:58.606Z,10.10
2019-05-03T17:26:24.958Z,9.90
2019-05-03T17:29:55.303Z,9.90
2019-05-03T17:33:25.233Z,9.80
2019-05-03T17:36:54.469Z,9.70
2019-05-03T17:40:19.292Z,9.60
2019-05-03T17:43:47.921Z,9.60
2019-05-03T17:47:23.423Z,9.40
2019-05-03T17:50:47.479Z,9.40
2019-05-03T17:54:17.869Z,9.30
2019-05-03T17:57:59.043Z,9.20
2019-05-03T18:01:27.732Z,9.20
2019-05-03T18:05:10.825Z,9.10
2019-05-03T18:08:44.519Z,9.10
2019-05-03T18:12:08.381Z,9.10
2019-05-03T18:15:32.190Z,9.00
2019-05-03T18:18:56.337Z,9.00
2019-05-03T18:22:20.242Z,9.00
2019-05-03T18:25:44.882Z,9.00
2019-05-03T18:29:10.268Z,8.90
2019-05-03T18:32:36.968Z,8.90
2019-05-03T18:36:01.159Z,8.80
2019-05-03T18:39:25.291Z,8.80
2019-05-03T18:42:55.159Z,8.80
2019-05-03T18:46:20.747Z,8.80
2019-05-03T18:49:44.826Z,8.70
2019-05-03T18:53:09.145Z,8.70
2019-05-03T18:56:34.575Z,8.70
2019-05-03T18:59:58.763Z,8.70
2019-05-03T19:03:25.012Z,8.70
2019-05-03T19:07:00.908Z,8.70
2019-05-03T19:10:17.794Z,8.70
2019-05-03T19:13:44.821Z,8.60
2019-05-03T19:17:16.486Z,8.60
2019-05-03T19:20:40.767Z,8.60
2019-05-03T19:24:05.456Z,8.60
2019-05-03T19:27:29.431Z,8.60
2019-05-03T19:30:54.909Z,8.50
2019-05-03T19:34:19.174Z,8.50
2019-05-03T19:37:46.388Z,8.40
2019-05-03T19:41:08.568Z,8.40
2019-05-03T19:44:32.521Z,8.30
2019-05-03T19:47:56.402Z,8.30
2019-05-03T19:51:21.546Z,8.30
2019-05-03T19:54:45.338Z,8.30
2019-05-03T19:58:09.707Z,8.30
2019-05-03T20:01:44.298Z,8.20
2019-05-03T20:05:14.834Z,8.20
2019-05-03T20:08:40.403Z,8.20
2019-05-03T20:12:05.725Z,8.10
2019-05-03T20:15:30.015Z,8.10
2019-05-03T20:18:55.533Z,8.10
2019-05-03T20:22:19.428Z,8.00
2019-05-03T20:25:43.205Z,8.00
2019-05-03T20:29:07.193Z,7.90
2019-05-03T20:32:31.001Z,7.90
2019-05-03T20:35:56.265Z,7.80
2019-05-03T20:39:20.323Z,7.80
2019-05-03T20:42:51.687Z,7.80
2019-05-03T20:46:20.163Z,7.70
2019-05-03T20:49:45.616Z,7.70
2019-05-03T20:53:09.503Z,7.70
2019-05-03T20:56:33.240Z,7.60
2019-05-03T20:59:57.072Z,7.60
2019-05-03T21:03:20.903Z,7.60
2019-05-03T21:06:45.450Z,7.50
2019-05-03T21:10:10.136Z,7.50
2019-05-03T21:13:42.149Z,7.50
2019-05-03T21:17:07.205Z,7.40
2019-05-03T21:20:38.709Z,7.40
2019-05-03T21:24:04.649Z,7.30
2019-05-03T21:27:28.585Z,7.20
2019-05-03T21:30:52.447Z,7.20
2019-05-03T21:34:16.301Z,7.10
2019-05-03T21:37:40.228Z,7.00
2019-05-03T21:41:05.164Z,7.00
2019-05-03T21:44:33.682Z,7.00
2019-05-03T21:47:59.202Z,6.90
2019-05-03T21:51:24.503Z,6.90
2019-05-03T21:54:48.496Z,6.90
2019-05-03T21:58:16.114Z,6.80
2019-05-03T22:01:42.472Z,6.80
2019-05-03T22:05:06.694Z,6.80
2019-05-03T22:08:31.029Z,6.80
2019-05-03T22:11:55.082Z,6.70
2019-05-03T22:15:20.530Z,6.80
2019-05-03T22:18:45.495Z,6.70
2019-05-03T22:22:28.903Z,6.70
2019-05-03T22:25:54.302Z,6.60
2019-05-03T22:29:19.189Z,6.60
2019-05-03T22:32:48.605Z,6.50
2019-05-03T22:36:14.494Z,6.50
2019-05-03T22:39:39.551Z,6.40
2019-05-03T22:43:03.422Z,6.30
2019-05-03T22:46:27.815Z,6.10
2019-05-03T22:49:51.672Z,6.10
2019-05-03T22:53:15.575Z,6.00
2019-05-03T22:56:39.458Z,5.90
2019-05-03T23:00:06.033Z,5.90
2019-05-03T23:03:31.425Z,5.90
2019-05-03T23:06:55.688Z,5.80
2019-05-03T23:10:19.721Z,5.80
2019-05-03T23:13:45.098Z,5.80
2019-05-03T23:17:08.969Z,5.80
2019-05-03T23:20:36.825Z,5.80
2019-05-03T23:24:00.658Z,5.80
2019-05-03T23:27:25.071Z,5.90
2019-05-03T23:30:49.218Z,5.90
2019-05-03T23:34:13.103Z,5.90
2019-05-03T23:37:37.658Z,6.00
2019-05-03T23:41:01.577Z,6.00
2019-05-03T23:44:25.430Z,6.10
2019-05-03T23:47:49.858Z,6.20
2019-05-03T23:51:15.458Z,6.20
2019-05-03T23:54:39.363Z,6.30
2019-05-03T23:58:04.855Z,6.40
